sensor_id;sensor_type;location;lat;lon;timestamp;temperature;humidity
32706;DHT22;19094;50.972;3.538;2023-06-14T00:02:06;26.20;49.30
32706;DHT22;19094;50.972;3.538;2023-06-14T00:04:34;26.20;49.30
32706;DHT22;19094;50.972;3.538;2023-06-14T00:07:00;26.10;49.30
32706;DHT22;19094;50.972;3.538;2023-06-14T00:09:26;26.10;49.30
32706;DHT22;19094;50.972;3.538;2023-06-14T00:11:52;26.10;49.30
32706;DHT22;19094;50.972;3.538;2023-06-14T00:14:18;26.10;49.40
32706;DHT22;19094;50.972;3.538;2023-06-14T00:16:44;26.10;49.40
32706;DHT22;19094;50.972;3.538;2023-06-14T00:19:10;26.10;49.40
32706;DHT22;19094;50.972;3.538;2023-06-14T00:21:37;26.10;49.50
32706;DHT22;19094;50.972;3.538;2023-06-14T00:24:03;26.10;49.50
32706;DHT22;19094;50.972;3.538;2023-06-14T00:26:29;26.00;49.40
32706;DHT22;19094;50.972;3.538;2023-06-14T00:28:55;26.00;50.10
32706;DHT22;19094;50.972;3.538;2023-06-14T00:31:22;26.00;49.50
32706;DHT22;19094;50.972;3.538;2023-06-14T00:33:48;26.00;49.60
32706;DHT22;19094;50.972;3.538;2023-06-14T00:36:13;26.00;49.60
32706;DHT22;19094;50.972;3.538;2023-06-14T00:38:39;26.00;49.60
32706;DHT22;19094;50.972;3.538;2023-06-14T00:41:05;26.00;49.70
32706;DHT22;19094;50.972;3.538;2023-06-14T00:43:30;25.90;49.70
32706;DHT22;19094;50.972;3.538;2023-06-14T00:45:56;25.90;49.70
32706;DHT22;19094;50.972;3.538;2023-06-14T00:48:22;25.90;49.70
32706;DHT22;19094;50.972;3.538;2023-06-14T00:50:49;25.90;49.70
32706;DHT22;19094;50.972;3.538;2023-06-14T00:53:16;25.90;49.80
32706;DHT22;19094;50.972;3.538;2023-06-14T00:55:46;25.90;49.80
32706;DHT22;19094;50.972;3.538;2023-06-14T00:58:12;25.90;49.80
32706;DHT22;19094;50.972;3.538;2023-06-14T01:00:39;25.90;49.80
32706;DHT22;19094;50.972;3.538;2023-06-14T01:03:04;25.90;49.90
32706;DHT22;19094;50.972;3.538;2023-06-14T01:05:31;25.90;49.90
32706;DHT22;19094;50.972;3.538;2023-06-14T01:08:11;25.80;49.90
32706;DHT22;19094;50.972;3.538;2023-06-14T01:13:20;25.80;50.00
32706;DHT22;19094;50.972;3.538;2023-06-14T01:15:47;25.80;50.00
32706;DHT22;19094;50.972;3.538;2023-06-14T01:18:13;25.80;50.00
32706;DHT22;19094;50.972;3.538;2023-06-14T01:20:46;25.80;50.10
32706;DHT22;19094;50.972;3.538;2023-06-14T01:23:19;25.80;50.10
32706;DHT22;19094;50.972;3.538;2023-06-14T01:25:45;25.80;50.10
32706;DHT22;19094;50.972;3.538;2023-06-14T01:28:13;25.80;50.20
32706;DHT22;19094;50.972;3.538;2023-06-14T01:30:42;25.70;50.20
32706;DHT22;19094;50.972;3.538;2023-06-14T01:33:15;25.70;50.20
32706;DHT22;19094;50.972;3.538;2023-06-14T01:35:46;25.70;50.20
32706;DHT22;19094;50.972;3.538;2023-06-14T01:38:20;25.70;50.20
32706;DHT22;19094;50.972;3.538;2023-06-14T01:40:48;25.70;50.30
32706;DHT22;19094;50.972;3.538;2023-06-14T01:43:15;25.70;50.30
32706;DHT22;19094;50.972;3.538;2023-06-14T01:45:46;25.70;50.30
32706;DHT22;19094;50.972;3.538;2023-06-14T01:48:12;25.70;50.40
32706;DHT22;19094;50.972;3.538;2023-06-14T01:50:39;25.70;50.30
32706;DHT22;19094;50.972;3.538;2023-06-14T01:53:08;25.70;50.40
32706;DHT22;19094;50.972;3.538;2023-06-14T01:55:34;25.70;50.40
32706;DHT22;19094;50.972;3.538;2023-06-14T01:58:03;25.70;50.40
32706;DHT22;19094;50.972;3.538;2023-06-14T02:00:29;25.60;50.40
32706;DHT22;19094;50.972;3.538;2023-06-14T02:02:54;25.60;50.50
32706;DHT22;19094;50.972;3.538;2023-06-14T02:05:21;25.60;50.50
32706;DHT22;19094;50.972;3.538;2023-06-14T02:07:47;25.60;50.50
32706;DHT22;19094;50.972;3.538;2023-06-14T02:10:13;25.50;50.50
32706;DHT22;19094;50.972;3.538;2023-06-14T02:12:39;25.60;51.20
32706;DHT22;19094;50.972;3.538;2023-06-14T02:15:05;25.60;50.60
32706;DHT22;19094;50.972;3.538;2023-06-14T02:17:31;25.60;50.60
32706;DHT22;19094;50.972;3.538;2023-06-14T02:19:57;25.50;50.60
32706;DHT22;19094;50.972;3.538;2023-06-14T02:22:22;25.50;50.60
32706;DHT22;19094;50.972;3.538;2023-06-14T02:24:48;25.50;50.70
32706;DHT22;19094;50.972;3.538;2023-06-14T02:27:14;25.50;50.70
32706;DHT22;19094;50.972;3.538;2023-06-14T02:29:40;25.50;50.70
32706;DHT22;19094;50.972;3.538;2023-06-14T02:32:06;25.50;50.80
32706;DHT22;19094;50.972;3.538;2023-06-14T02:34:35;25.40;50.70
32706;DHT22;19094;50.972;3.538;2023-06-14T02:37:02;25.40;50.70
32706;DHT22;19094;50.972;3.538;2023-06-14T02:39:30;25.40;50.80
32706;DHT22;19094;50.972;3.538;2023-06-14T02:41:56;25.40;50.80
32706;DHT22;19094;50.972;3.538;2023-06-14T02:44:25;25.40;50.80
32706;DHT22;19094;50.972;3.538;2023-06-14T02:46:54;25.40;50.90
32706;DHT22;19094;50.972;3.538;2023-06-14T02:49:21;25.40;50.90
32706;DHT22;19094;50.972;3.538;2023-06-14T02:51:47;25.40;50.90
32706;DHT22;19094;50.972;3.538;2023-06-14T02:54:12;25.40;50.90
32706;DHT22;19094;50.972;3.538;2023-06-14T02:56:39;25.40;51.00
32706;DHT22;19094;50.972;3.538;2023-06-14T02:59:04;25.40;51.00
32706;DHT22;19094;50.972;3.538;2023-06-14T03:01:30;25.30;51.00
32706;DHT22;19094;50.972;3.538;2023-06-14T03:04:07;25.30;51.00
32706;DHT22;19094;50.972;3.538;2023-06-14T03:06:33;25.30;51.00
32706;DHT22;19094;50.972;3.538;2023-06-14T03:09:00;25.30;51.00
32706;DHT22;19094;50.972;3.538;2023-06-14T03:11:29;25.30;51.00
32706;DHT22;19094;50.972;3.538;2023-06-14T03:13:55;25.30;51.00
32706;DHT22;19094;50.972;3.538;2023-06-14T03:16:22;25.30;51.00
32706;DHT22;19094;50.972;3.538;2023-06-14T03:18:51;25.30;51.10
32706;DHT22;19094;50.972;3.538;2023-06-14T03:21:17;25.30;51.10
32706;DHT22;19094;50.972;3.538;2023-06-14T03:23:43;25.20;51.00
32706;DHT22;19094;50.972;3.538;2023-06-14T03:26:10;25.20;51.00
32706;DHT22;19094;50.972;3.538;2023-06-14T03:28:39;25.20;51.10
32706;DHT22;19094;50.972;3.538;2023-06-14T03:31:05;25.20;51.00
32706;DHT22;19094;50.972;3.538;2023-06-14T03:33:31;25.20;51.00
32706;DHT22;19094;50.972;3.538;2023-06-14T03:35:57;25.20;51.00
32706;DHT22;19094;50.972;3.538;2023-06-14T03:38:23;25.20;51.10
32706;DHT22;19094;50.972;3.538;2023-06-14T03:40:48;25.10;51.00
32706;DHT22;19094;50.972;3.538;2023-06-14T03:43:14;25.10;51.10
32706;DHT22;19094;50.972;3.538;2023-06-14T03:45:40;25.10;51.20
32706;DHT22;19094;50.972;3.538;2023-06-14T03:48:06;25.10;51.20
32706;DHT22;19094;50.972;3.538;2023-06-14T03:50:34;25.10;51.30
32706;DHT22;19094;50.972;3.538;2023-06-14T03:53:00;25.00;51.30
32706;DHT22;19094;50.972;3.538;2023-06-14T03:55:26;25.00;51.30
32706;DHT22;19094;50.972;3.538;2023-06-14T03:57:52;25.00;51.40
32706;DHT22;19094;50.972;3.538;2023-06-14T04:00:18;24.90;51.40
32706;DHT22;19094;50.972;3.538;2023-06-14T04:02:44;24.90;51.50
32706;DHT22;19094;50.972;3.538;2023-06-14T04:05:10;24.90;51.50
32706;DHT22;19094;50.972;3.538;2023-06-14T04:07:36;24.90;51.50
32706;DHT22;19094;50.972;3.538;2023-06-14T04:10:06;24.90;51.60
32706;DHT22;19094;50.972;3.538;2023-06-14T04:12:33;24.90;51.60
32706;DHT22;19094;50.972;3.538;2023-06-14T04:14:58;24.90;51.60
32706;DHT22;19094;50.972;3.538;2023-06-14T04:17:24;24.80;51.60
32706;DHT22;19094;50.972;3.538;2023-06-14T04:19:50;24.80;51.60
32706;DHT22;19094;50.972;3.538;2023-06-14T04:22:16;24.80;51.60
32706;DHT22;19094;50.972;3.538;2023-06-14T04:24:41;24.80;51.60
32706;DHT22;19094;50.972;3.538;2023-06-14T04:27:07;24.80;51.60
32706;DHT22;19094;50.972;3.538;2023-06-14T04:29:33;24.80;51.50
32706;DHT22;19094;50.972;3.538;2023-06-14T04:31:59;24.80;51.50
32706;DHT22;19094;50.972;3.538;2023-06-14T04:34:28;24.80;51.50
32706;DHT22;19094;50.972;3.538;2023-06-14T04:36:59;24.80;51.60
32706;DHT22;19094;50.972;3.538;2023-06-14T04:39:26;24.80;51.50
32706;DHT22;19094;50.972;3.538;2023-06-14T04:41:53;24.80;51.50
32706;DHT22;19094;50.972;3.538;2023-06-14T04:44:23;24.80;51.50
32706;DHT22;19094;50.972;3.538;2023-06-14T04:46:50;24.80;51.50
32706;DHT22;19094;50.972;3.538;2023-06-14T04:49:15;24.80;51.60
32706;DHT22;19094;50.972;3.538;2023-06-14T04:51:43;24.80;51.50
32706;DHT22;19094;50.972;3.538;2023-06-14T04:54:09;24.80;51.50
32706;DHT22;19094;50.972;3.538;2023-06-14T04:56:39;24.80;51.50
32706;DHT22;19094;50.972;3.538;2023-06-14T04:59:05;24.80;51.50
32706;DHT22;19094;50.972;3.538;2023-06-14T05:01:31;24.80;51.50
32706;DHT22;19094;50.972;3.538;2023-06-14T05:03:58;24.80;51.50
32706;DHT22;19094;50.972;3.538;2023-06-14T05:06:24;24.80;51.40
32706;DHT22;19094;50.972;3.538;2023-06-14T05:08:49;24.80;51.40
32706;DHT22;19094;50.972;3.538;2023-06-14T05:11:15;24.80;51.40
32706;DHT22;19094;50.972;3.538;2023-06-14T05:13:42;24.80;51.40
32706;DHT22;19094;50.972;3.538;2023-06-14T05:16:10;24.80;51.40
32706;DHT22;19094;50.972;3.538;2023-06-14T05:18:37;24.80;51.30
32706;DHT22;19094;50.972;3.538;2023-06-14T05:21:03;24.80;51.30
32706;DHT22;19094;50.972;3.538;2023-06-14T05:23:32;24.80;51.20
32706;DHT22;19094;50.972;3.538;2023-06-14T05:25:58;24.80;51.20
32706;DHT22;19094;50.972;3.538;2023-06-14T05:28:24;24.80;51.20
32706;DHT22;19094;50.972;3.538;2023-06-14T05:30:50;24.80;51.20
32706;DHT22;19094;50.972;3.538;2023-06-14T05:33:16;24.80;51.20
32706;DHT22;19094;50.972;3.538;2023-06-14T05:35:42;24.80;51.20
32706;DHT22;19094;50.972;3.538;2023-06-14T05:38:08;24.80;51.10
32706;DHT22;19094;50.972;3.538;2023-06-14T05:40:34;24.80;51.10
32706;DHT22;19094;50.972;3.538;2023-06-14T05:43:00;24.80;51.10
32706;DHT22;19094;50.972;3.538;2023-06-14T05:45:25;24.80;51.00
32706;DHT22;19094;50.972;3.538;2023-06-14T05:47:52;24.80;51.00
32706;DHT22;19094;50.972;3.538;2023-06-14T05:50:20;24.80;51.00
32706;DHT22;19094;50.972;3.538;2023-06-14T05:52:46;24.80;50.90
32706;DHT22;19094;50.972;3.538;2023-06-14T05:55:11;24.80;51.30
32706;DHT22;19094;50.972;3.538;2023-06-14T05:57:37;24.90;51.00
32706;DHT22;19094;50.972;3.538;2023-06-14T06:00:03;24.90;50.80
32706;DHT22;19094;50.972;3.538;2023-06-14T06:02:43;24.90;50.80
32706;DHT22;19094;50.972;3.538;2023-06-14T06:05:10;24.90;50.70
32706;DHT22;19094;50.972;3.538;2023-06-14T06:07:36;24.90;50.70
32706;DHT22;19094;50.972;3.538;2023-06-14T06:10:03;24.90;50.60
32706;DHT22;19094;50.972;3.538;2023-06-14T06:12:29;24.90;50.60
32706;DHT22;19094;50.972;3.538;2023-06-14T06:14:55;24.90;50.60
32706;DHT22;19094;50.972;3.538;2023-06-14T06:17:21;25.00;50.50
32706;DHT22;19094;50.972;3.538;2023-06-14T06:19:46;25.00;50.50
32706;DHT22;19094;50.972;3.538;2023-06-14T06:22:12;25.00;50.40
32706;DHT22;19094;50.972;3.538;2023-06-14T06:24:38;25.00;50.40
32706;DHT22;19094;50.972;3.538;2023-06-14T06:27:04;25.00;50.40
32706;DHT22;19094;50.972;3.538;2023-06-14T06:29:30;25.00;50.30
32706;DHT22;19094;50.972;3.538;2023-06-14T06:31:55;25.00;50.20
32706;DHT22;19094;50.972;3.538;2023-06-14T06:34:22;25.00;50.30
32706;DHT22;19094;50.972;3.538;2023-06-14T06:36:48;25.00;50.30
32706;DHT22;19094;50.972;3.538;2023-06-14T06:39:13;25.00;50.20
32706;DHT22;19094;50.972;3.538;2023-06-14T06:41:40;25.00;50.20
32706;DHT22;19094;50.972;3.538;2023-06-14T06:44:06;25.00;50.10
32706;DHT22;19094;50.972;3.538;2023-06-14T06:46:33;25.00;50.10
32706;DHT22;19094;50.972;3.538;2023-06-14T06:48:59;25.00;49.70
32706;DHT22;19094;50.972;3.538;2023-06-14T06:51:25;25.00;48.20
32706;DHT22;19094;50.972;3.538;2023-06-14T06:53:54;25.10;49.20
32706;DHT22;19094;50.972;3.538;2023-06-14T06:56:21;25.00;49.20
32706;DHT22;19094;50.972;3.538;2023-06-14T06:58:51;25.10;49.10
32706;DHT22;19094;50.972;3.538;2023-06-14T07:01:17;25.00;48.80
32706;DHT22;19094;50.972;3.538;2023-06-14T07:03:44;25.10;48.90
32706;DHT22;19094;50.972;3.538;2023-06-14T07:06:10;25.10;48.40
32706;DHT22;19094;50.972;3.538;2023-06-14T07:08:36;25.00;47.70
32706;DHT22;19094;50.972;3.538;2023-06-14T07:11:04;25.00;46.70
32706;DHT22;19094;50.972;3.538;2023-06-14T07:13:30;25.00;47.50
32706;DHT22;19094;50.972;3.538;2023-06-14T07:15:59;25.10;47.60
32706;DHT22;19094;50.972;3.538;2023-06-14T07:18:26;25.00;47.30
32706;DHT22;19094;50.972;3.538;2023-06-14T07:20:52;25.10;47.20
32706;DHT22;19094;50.972;3.538;2023-06-14T07:23:19;25.10;46.60
32706;DHT22;19094;50.972;3.538;2023-06-14T07:25:46;25.10;46.60
32706;DHT22;19094;50.972;3.538;2023-06-14T07:28:12;25.10;46.60
32706;DHT22;19094;50.972;3.538;2023-06-14T07:30:37;25.10;46.20
32706;DHT22;19094;50.972;3.538;2023-06-14T07:33:03;25.10;46.10
32706;DHT22;19094;50.972;3.538;2023-06-14T07:35:29;25.10;45.90
32706;DHT22;19094;50.972;3.538;2023-06-14T07:37:55;25.10;45.30
32706;DHT22;19094;50.972;3.538;2023-06-14T07:40:21;25.20;44.20
32706;DHT22;19094;50.972;3.538;2023-06-14T07:42:47;25.10;44.70
32706;DHT22;19094;50.972;3.538;2023-06-14T07:45:13;25.20;44.90
32706;DHT22;19094;50.972;3.538;2023-06-14T07:47:39;25.20;44.10
32706;DHT22;19094;50.972;3.538;2023-06-14T07:50:05;25.20;44.40
32706;DHT22;19094;50.972;3.538;2023-06-14T07:52:31;25.20;44.10
32706;DHT22;19094;50.972;3.538;2023-06-14T07:54:57;25.30;44.50
32706;DHT22;19094;50.972;3.538;2023-06-14T07:57:23;25.30;44.00
32706;DHT22;19094;50.972;3.538;2023-06-14T07:59:49;25.40;44.70
32706;DHT22;19094;50.972;3.538;2023-06-14T08:02:15;25.40;45.00
32706;DHT22;19094;50.972;3.538;2023-06-14T08:04:41;25.40;44.70
32706;DHT22;19094;50.972;3.538;2023-06-14T08:07:07;25.40;44.80
32706;DHT22;19094;50.972;3.538;2023-06-14T08:09:33;25.40;45.00
32706;DHT22;19094;50.972;3.538;2023-06-14T08:11:59;25.50;45.00
32706;DHT22;19094;50.972;3.538;2023-06-14T08:14:25;25.50;45.20
32706;DHT22;19094;50.972;3.538;2023-06-14T08:16:51;25.50;45.20
32706;DHT22;19094;50.972;3.538;2023-06-14T08:19:16;25.50;45.00
32706;DHT22;19094;50.972;3.538;2023-06-14T08:21:43;25.50;45.20
32706;DHT22;19094;50.972;3.538;2023-06-14T08:24:11;25.60;45.30
32706;DHT22;19094;50.972;3.538;2023-06-14T08:26:38;25.60;45.20
32706;DHT22;19094;50.972;3.538;2023-06-14T08:29:05;25.70;45.30
32706;DHT22;19094;50.972;3.538;2023-06-14T08:31:32;25.70;45.30
32706;DHT22;19094;50.972;3.538;2023-06-14T08:33:58;25.70;45.30
32706;DHT22;19094;50.972;3.538;2023-06-14T08:36:24;25.70;45.30
32706;DHT22;19094;50.972;3.538;2023-06-14T08:38:50;25.70;45.30
32706;DHT22;19094;50.972;3.538;2023-06-14T08:41:21;25.80;45.30
32706;DHT22;19094;50.972;3.538;2023-06-14T08:43:51;25.90;45.40
32706;DHT22;19094;50.972;3.538;2023-06-14T08:46:18;25.90;45.40
32706;DHT22;19094;50.972;3.538;2023-06-14T08:48:55;25.90;45.30
32706;DHT22;19094;50.972;3.538;2023-06-14T08:51:25;26.00;45.40
32706;DHT22;19094;50.972;3.538;2023-06-14T08:53:55;26.10;45.20
32706;DHT22;19094;50.972;3.538;2023-06-14T08:56:27;26.10;45.10
32706;DHT22;19094;50.972;3.538;2023-06-14T08:58:54;26.10;44.40
32706;DHT22;19094;50.972;3.538;2023-06-14T09:01:22;26.20;45.20
32706;DHT22;19094;50.972;3.538;2023-06-14T09:03:49;26.20;45.00
32706;DHT22;19094;50.972;3.538;2023-06-14T09:06:15;26.30;44.30
32706;DHT22;19094;50.972;3.538;2023-06-14T09:08:43;26.30;44.90
32706;DHT22;19094;50.972;3.538;2023-06-14T09:11:15;26.30;45.00
32706;DHT22;19094;50.972;3.538;2023-06-14T09:13:42;26.30;45.10
32706;DHT22;19094;50.972;3.538;2023-06-14T09:16:08;26.40;45.10
32706;DHT22;19094;50.972;3.538;2023-06-14T09:18:42;26.40;45.10
32706;DHT22;19094;50.972;3.538;2023-06-14T09:21:14;26.40;45.20
32706;DHT22;19094;50.972;3.538;2023-06-14T09:23:44;26.40;45.20
32706;DHT22;19094;50.972;3.538;2023-06-14T09:26:15;26.40;45.20
32706;DHT22;19094;50.972;3.538;2023-06-14T09:28:45;26.50;45.10
32706;DHT22;19094;50.972;3.538;2023-06-14T09:31:13;26.50;45.20
32706;DHT22;19094;50.972;3.538;2023-06-14T09:33:41;26.50;45.20
32706;DHT22;19094;50.972;3.538;2023-06-14T09:36:13;26.50;45.10
32706;DHT22;19094;50.972;3.538;2023-06-14T09:38:41;26.50;45.20
32706;DHT22;19094;50.972;3.538;2023-06-14T09:41:07;26.60;45.10
32706;DHT22;19094;50.972;3.538;2023-06-14T09:43:33;26.60;45.20
32706;DHT22;19094;50.972;3.538;2023-06-14T09:46:00;26.60;45.10
32706;DHT22;19094;50.972;3.538;2023-06-14T09:48:26;26.60;45.20
32706;DHT22;19094;50.972;3.538;2023-06-14T09:50:53;26.70;45.20
32706;DHT22;19094;50.972;3.538;2023-06-14T09:53:21;26.60;45.10
32706;DHT22;19094;50.972;3.538;2023-06-14T09:55:49;26.70;44.60
32706;DHT22;19094;50.972;3.538;2023-06-14T09:58:16;26.70;45.20
32706;DHT22;19094;50.972;3.538;2023-06-14T10:00:44;26.70;45.10
32706;DHT22;19094;50.972;3.538;2023-06-14T10:03:14;26.80;45.20
32706;DHT22;19094;50.972;3.538;2023-06-14T10:05:44;26.70;45.00
32706;DHT22;19094;50.972;3.538;2023-06-14T10:08:14;26.80;45.20
32706;DHT22;19094;50.972;3.538;2023-06-14T10:10:42;26.80;43.30
32706;DHT22;19094;50.972;3.538;2023-06-14T10:13:08;26.80;43.30
32706;DHT22;19094;50.972;3.538;2023-06-14T10:15:47;26.90;44.90
32706;DHT22;19094;50.972;3.538;2023-06-14T10:24:29;26.90;45.30
32706;DHT22;19094;50.972;3.538;2023-06-14T10:26:58;26.90;45.00
32706;DHT22;19094;50.972;3.538;2023-06-14T10:29:29;26.90;44.40
32706;DHT22;19094;50.972;3.538;2023-06-14T10:31:59;27.00;44.20
32706;DHT22;19094;50.972;3.538;2023-06-14T10:34:31;27.00;43.60
32706;DHT22;19094;50.972;3.538;2023-06-14T10:37:03;27.00;44.90
32706;DHT22;19094;50.972;3.538;2023-06-14T10:39:29;26.90;45.10
32706;DHT22;19094;50.972;3.538;2023-06-14T10:41:57;27.00;44.60
32706;DHT22;19094;50.972;3.538;2023-06-14T10:46:49;27.10;44.60
32706;DHT22;19094;50.972;3.538;2023-06-14T10:49:18;27.10;44.80
32706;DHT22;19094;50.972;3.538;2023-06-14T10:51:46;27.10;44.70
32706;DHT22;19094;50.972;3.538;2023-06-14T10:54:20;27.10;44.60
32706;DHT22;19094;50.972;3.538;2023-06-14T10:56:50;27.10;44.90
32706;DHT22;19094;50.972;3.538;2023-06-14T10:59:17;27.10;44.10
32706;DHT22;19094;50.972;3.538;2023-06-14T11:10:38;27.20;44.70
32706;DHT22;19094;50.972;3.538;2023-06-14T11:13:04;27.20;44.60
32706;DHT22;19094;50.972;3.538;2023-06-14T11:15:31;27.30;44.60
32706;DHT22;19094;50.972;3.538;2023-06-14T11:17:57;27.30;43.50
32706;DHT22;19094;50.972;3.538;2023-06-14T11:20:27;27.30;44.30
32706;DHT22;19094;50.972;3.538;2023-06-14T11:22:53;27.40;44.20
32706;DHT22;19094;50.972;3.538;2023-06-14T11:25:19;27.40;44.50
32706;DHT22;19094;50.972;3.538;2023-06-14T11:27:45;27.40;44.40
32706;DHT22;19094;50.972;3.538;2023-06-14T11:30:14;27.50;44.40
32706;DHT22;19094;50.972;3.538;2023-06-14T11:32:40;27.60;41.60
32706;DHT22;19094;50.972;3.538;2023-06-14T11:35:07;27.70;42.00
32706;DHT22;19094;50.972;3.538;2023-06-14T11:37:34;27.70;43.30
32706;DHT22;19094;50.972;3.538;2023-06-14T11:40:03;27.80;41.80
32706;DHT22;19094;50.972;3.538;2023-06-14T11:42:35;27.70;43.80
32706;DHT22;19094;50.972;3.538;2023-06-14T11:45:01;27.70;43.70
32706;DHT22;19094;50.972;3.538;2023-06-14T11:47:35;27.70;43.90
32706;DHT22;19094;50.972;3.538;2023-06-14T11:50:02;27.70;44.20
32706;DHT22;19094;50.972;3.538;2023-06-14T11:52:28;27.60;44.30
32706;DHT22;19094;50.972;3.538;2023-06-14T11:54:54;27.70;43.20
32706;DHT22;19094;50.972;3.538;2023-06-14T11:57:20;27.80;44.00
32706;DHT22;19094;50.972;3.538;2023-06-14T11:59:46;27.80;44.20
32706;DHT22;19094;50.972;3.538;2023-06-14T12:02:16;27.90;42.10
32706;DHT22;19094;50.972;3.538;2023-06-14T12:04:47;28.00;43.30
32706;DHT22;19094;50.972;3.538;2023-06-14T12:07:15;28.10;42.40
32706;DHT22;19094;50.972;3.538;2023-06-14T12:09:41;28.10;42.30
32706;DHT22;19094;50.972;3.538;2023-06-14T12:12:12;28.00;43.50
32706;DHT22;19094;50.972;3.538;2023-06-14T12:14:39;28.00;43.70
32706;DHT22;19094;50.972;3.538;2023-06-14T12:17:07;28.10;43.00
32706;DHT22;19094;50.972;3.538;2023-06-14T12:19:33;28.10;43.50
32706;DHT22;19094;50.972;3.538;2023-06-14T12:22:04;28.00;43.60
32706;DHT22;19094;50.972;3.538;2023-06-14T12:24:31;28.10;43.40
32706;DHT22;19094;50.972;3.538;2023-06-14T12:26:58;28.10;43.30
32706;DHT22;19094;50.972;3.538;2023-06-14T12:29:29;28.20;43.40
32706;DHT22;19094;50.972;3.538;2023-06-14T12:31:55;28.30;42.40
32706;DHT22;19094;50.972;3.538;2023-06-14T12:34:26;28.40;42.00
32706;DHT22;19094;50.972;3.538;2023-06-14T12:36:53;28.60;42.80
32706;DHT22;19094;50.972;3.538;2023-06-14T12:39:19;28.50;42.70
32706;DHT22;19094;50.972;3.538;2023-06-14T12:41:45;28.40;43.00
32706;DHT22;19094;50.972;3.538;2023-06-14T12:44:11;28.40;43.10
32706;DHT22;19094;50.972;3.538;2023-06-14T12:46:37;28.30;43.30
32706;DHT22;19094;50.972;3.538;2023-06-14T12:49:07;28.40;43.10
32706;DHT22;19094;50.972;3.538;2023-06-14T12:51:33;28.50;43.00
32706;DHT22;19094;50.972;3.538;2023-06-14T12:53:59;28.40;43.10
32706;DHT22;19094;50.972;3.538;2023-06-14T12:56:24;28.50;43.10
32706;DHT22;19094;50.972;3.538;2023-06-14T12:58:52;28.60;42.80
32706;DHT22;19094;50.972;3.538;2023-06-14T13:01:18;28.70;42.30
32706;DHT22;19094;50.972;3.538;2023-06-14T13:03:43;28.80;42.40
32706;DHT22;19094;50.972;3.538;2023-06-14T13:06:09;28.80;41.70
32706;DHT22;19094;50.972;3.538;2023-06-14T13:08:35;28.80;42.30
32706;DHT22;19094;50.972;3.538;2023-06-14T13:11:00;28.90;42.10
32706;DHT22;19094;50.972;3.538;2023-06-14T13:13:26;28.90;42.20
32706;DHT22;19094;50.972;3.538;2023-06-14T13:15:52;29.00;41.70
32706;DHT22;19094;50.972;3.538;2023-06-14T13:18:18;29.20;39.60
32706;DHT22;19094;50.972;3.538;2023-06-14T13:20:44;29.40;40.80
32706;DHT22;19094;50.972;3.538;2023-06-14T13:23:10;29.30;41.70
32706;DHT22;19094;50.972;3.538;2023-06-14T13:25:37;29.30;41.00
32706;DHT22;19094;50.972;3.538;2023-06-14T13:28:04;29.20;41.90
32706;DHT22;19094;50.972;3.538;2023-06-14T13:30:30;29.20;41.90
32706;DHT22;19094;50.972;3.538;2023-06-14T13:32:56;29.10;42.10
32706;DHT22;19094;50.972;3.538;2023-06-14T13:35:23;29.10;42.00
32706;DHT22;19094;50.972;3.538;2023-06-14T13:37:49;29.30;39.40
32706;DHT22;19094;50.972;3.538;2023-06-14T13:40:14;29.50;41.10
32706;DHT22;19094;50.972;3.538;2023-06-14T13:42:41;29.60;40.90
32706;DHT22;19094;50.972;3.538;2023-06-14T13:45:08;29.60;41.40
32706;DHT22;19094;50.972;3.538;2023-06-14T13:47:34;29.40;41.60
32706;DHT22;19094;50.972;3.538;2023-06-14T13:50:00;29.60;40.60
32706;DHT22;19094;50.972;3.538;2023-06-14T13:52:25;29.70;40.80
32706;DHT22;19094;50.972;3.538;2023-06-14T13:54:51;29.80;41.10
32706;DHT22;19094;50.972;3.538;2023-06-14T13:57:18;29.80;39.30
32706;DHT22;19094;50.972;3.538;2023-06-14T13:59:44;29.90;40.10
32706;DHT22;19094;50.972;3.538;2023-06-14T14:02:10;29.90;39.20
32706;DHT22;19094;50.972;3.538;2023-06-14T14:04:37;30.10;38.20
32706;DHT22;19094;50.972;3.538;2023-06-14T14:07:03;30.20;40.10
32706;DHT22;19094;50.972;3.538;2023-06-14T14:09:30;30.00;40.60
32706;DHT22;19094;50.972;3.538;2023-06-14T14:11:56;30.00;40.70
32706;DHT22;19094;50.972;3.538;2023-06-14T14:14:22;29.90;40.20
32706;DHT22;19094;50.972;3.538;2023-06-14T14:16:49;29.90;40.90
32706;DHT22;19094;50.972;3.538;2023-06-14T14:19:17;30.10;40.30
32706;DHT22;19094;50.972;3.538;2023-06-14T14:21:44;30.20;40.00
32706;DHT22;19094;50.972;3.538;2023-06-14T14:24:10;30.20;39.50
32706;DHT22;19094;50.972;3.538;2023-06-14T14:26:36;30.20;40.40
32706;DHT22;19094;50.972;3.538;2023-06-14T14:29:02;30.10;40.50
32706;DHT22;19094;50.972;3.538;2023-06-14T14:31:30;30.00;41.00
32706;DHT22;19094;50.972;3.538;2023-06-14T14:33:56;30.20;39.40
32706;DHT22;19094;50.972;3.538;2023-06-14T14:36:22;30.20;40.60
32706;DHT22;19094;50.972;3.538;2023-06-14T14:38:47;30.10;40.80
32706;DHT22;19094;50.972;3.538;2023-06-14T14:41:13;30.10;40.90
32706;DHT22;19094;50.972;3.538;2023-06-14T14:43:39;29.90;41.20
32706;DHT22;19094;50.972;3.538;2023-06-14T14:46:05;30.00;40.90
32706;DHT22;19094;50.972;3.538;2023-06-14T14:48:30;30.10;40.80
32706;DHT22;19094;50.972;3.538;2023-06-14T14:50:56;30.20;40.80
32706;DHT22;19094;50.972;3.538;2023-06-14T14:53:22;29.90;41.30
32706;DHT22;19094;50.972;3.538;2023-06-14T14:55:48;29.90;41.40
32706;DHT22;19094;50.972;3.538;2023-06-14T14:58:14;30.00;38.60
32706;DHT22;19094;50.972;3.538;2023-06-14T15:00:44;30.30;38.40
32706;DHT22;19094;50.972;3.538;2023-06-14T15:03:10;30.50;39.40
32706;DHT22;19094;50.972;3.538;2023-06-14T15:05:36;30.40;38.00
32706;DHT22;19094;50.972;3.538;2023-06-14T15:08:03;30.30;40.50
32706;DHT22;19094;50.972;3.538;2023-06-14T15:10:29;30.30;40.50
32706;DHT22;19094;50.972;3.538;2023-06-14T15:12:55;30.40;40.00
32706;DHT22;19094;50.972;3.538;2023-06-14T15:15:22;30.30;40.60
32706;DHT22;19094;50.972;3.538;2023-06-14T15:17:47;30.20;40.80
32706;DHT22;19094;50.972;3.538;2023-06-14T15:20:13;30.20;41.10
32706;DHT22;19094;50.972;3.538;2023-06-14T15:22:40;30.20;40.70
32706;DHT22;19094;50.972;3.538;2023-06-14T15:25:06;30.10;41.20
32706;DHT22;19094;50.972;3.538;2023-06-14T15:27:32;30.10;41.10
32706;DHT22;19094;50.972;3.538;2023-06-14T15:29:57;30.10;41.20
32706;DHT22;19094;50.972;3.538;2023-06-14T15:32:23;30.10;41.60
32706;DHT22;19094;50.972;3.538;2023-06-14T15:34:49;30.00;41.60
32706;DHT22;19094;50.972;3.538;2023-06-14T15:37:14;30.00;41.80
32706;DHT22;19094;50.972;3.538;2023-06-14T15:39:40;30.00;41.80
32706;DHT22;19094;50.972;3.538;2023-06-14T15:42:06;30.00;41.80
32706;DHT22;19094;50.972;3.538;2023-06-14T15:44:33;30.00;41.70
32706;DHT22;19094;50.972;3.538;2023-06-14T15:46:58;29.90;42.00
32706;DHT22;19094;50.972;3.538;2023-06-14T15:49:24;29.90;42.00